Time;durP1;ratioP1;P1;durP2;ratioP2;P2;SDS_P1;SDS_P2;PMS_P1;PMS_P2;Temp;Humidity;BMP_temperature;BMP_pressure;BME280_temperature;BME280_humidity;BME280_pressure;Samples;Min_cycle;Max_cycle;Signal;HPM_P1;HPM_P2
2023/05/23 00:01:48;;;;;;;14.60;11.47;;;;;;;;;;5013911;28;20465;-46
2023/05/23 00:04:17;;;;;;;17.77;11.70;;;;;;;;;;5013993;28;20456;-47
2023/05/23 00:06:49;;;;;;;15.50;11.63;;;;;;;;;;5013451;28;20811;-46
2023/05/23 00:09:15;;;;;;;14.77;10.80;;;;;;;;;;5014071;28;20501;-46
2023/05/23 00:11:44;;;;;;;14.53;10.73;;;;;;;;;;5013991;28;20454;-46
2023/05/23 00:14:12;;;;;;;17.73;11.60;;;;;;;;;;5012705;28;20428;-45
2023/05/23 00:16:40;;;;;;;13.40;9.57;;;;;;;;;;5013506;28;20454;-45
2023/05/23 00:19:07;;;;;;;14.43;10.00;;;;;;;;;;5020330;28;20464;-46
2023/05/23 00:21:32;;;;;;;11.90;8.77;;;;;;;;;;5014186;28;20874;-46
2023/05/23 00:23:59;;;;;;;11.17;10.00;;;;;;;;;;5014016;28;20438;-46
2023/05/23 00:26:28;;;;;;;12.60;9.60;;;;;;;;;;5013528;28;20409;-46
2023/05/23 00:28:55;;;;;;;11.37;9.73;;;;;;;;;;5013593;28;20496;-46
2023/05/23 00:31:21;;;;;;;13.87;11.17;;;;;;;;;;5013685;28;20383;-46
2023/05/23 00:33:47;;;;;;;15.70;11.97;;;;;;;;;;5013349;28;20407;-48
2023/05/23 00:36:13;;;;;;;19.87;11.10;;;;;;;;;;5013735;28;20599;-46
2023/05/23 00:38:39;;;;;;;13.07;11.67;;;;;;;;;;5013502;28;20482;-46
2023/05/23 00:41:05;;;;;;;14.70;11.77;;;;;;;;;;5013681;28;20448;-46
2023/05/23 00:43:31;;;;;;;14.10;12.50;;;;;;;;;;5013255;28;20469;-46
2023/05/23 00:45:57;;;;;;;16.20;10.90;;;;;;;;;;5013059;28;20395;-46
2023/05/23 00:48:24;;;;;;;12.77;11.20;;;;;;;;;;5012842;28;20462;-46
2023/05/23 00:50:50;;;;;;;14.17;11.70;;;;;;;;;;5013236;28;20401;-47
2023/05/23 00:53:16;;;;;;;14.87;11.17;;;;;;;;;;5013129;28;20406;-46
2023/05/23 00:55:43;;;;;;;13.97;11.23;;;;;;;;;;5013375;28;20486;-46
2023/05/23 00:58:10;;;;;;;12.77;9.90;;;;;;;;;;5010673;28;20402;-47
2023/05/23 01:00:37;;;;;;;14.30;11.20;;;;;;;;;;5012853;28;20753;-46
2023/05/23 01:03:06;;;;;;;12.30;10.60;;;;;;;;;;5012430;28;20976;-45
2023/05/23 01:05:32;;;;;;;18.53;9.87;;;;;;;;;;5012478;28;20494;-46
2023/05/23 01:07:58;;;;;;;11.20;8.87;;;;;;;;;;5011861;28;20535;-46
2023/05/23 01:10:29;;;;;;;17.80;8.40;;;;;;;;;;5012584;28;20409;-46
2023/05/23 01:12:56;;;;;;;9.23;7.33;;;;;;;;;;5012378;28;20534;-46
2023/05/23 01:15:25;;;;;;;8.40;7.37;;;;;;;;;;5012327;28;20494;-46
2023/05/23 01:18:09;;;;;;;8.30;7.07;;;;;;;;;;5018509;28;20426;-47
2023/05/23 01:20:40;;;;;;;7.67;6.77;;;;;;;;;;5009789;28;20865;-46
2023/05/23 01:23:29;;;;;;;7.90;5.73;;;;;;;;;;5012382;28;20531;-47
2023/05/23 01:26:15;;;;;;;10.23;6.70;;;;;;;;;;5011963;28;20418;-45
2023/05/23 01:28:45;;;;;;;8.07;7.23;;;;;;;;;;5010040;28;20506;-46
2023/05/23 01:31:11;;;;;;;8.33;7.53;;;;;;;;;;5008933;28;20457;-46
2023/05/23 01:33:38;;;;;;;9.17;7.03;;;;;;;;;;5009314;28;20456;-46
2023/05/23 01:36:04;;;;;;;10.10;7.00;;;;;;;;;;5011943;28;20803;-46
2023/05/23 01:38:30;;;;;;;7.87;6.80;;;;;;;;;;5014252;28;20415;-46
2023/05/23 01:40:56;;;;;;;7.73;6.83;;;;;;;;;;5012453;28;20493;-46
2023/05/23 01:43:22;;;;;;;7.97;6.50;;;;;;;;;;5011906;28;20508;-46
2023/05/23 01:45:48;;;;;;;12.93;7.07;;;;;;;;;;5012058;28;20566;-46
2023/05/23 01:48:15;;;;;;;7.60;6.90;;;;;;;;;;5011798;28;20991;-45
2023/05/23 01:50:44;;;;;;;8.17;7.37;;;;;;;;;;5018723;28;20419;-45
2023/05/23 01:53:10;;;;;;;7.77;6.30;;;;;;;;;;5011986;28;20431;-45
2023/05/23 01:55:36;;;;;;;8.17;6.40;;;;;;;;;;5012039;28;20407;-46
2023/05/23 01:58:02;;;;;;;7.13;6.53;;;;;;;;;;5009993;28;20430;-45
2023/05/23 02:00:28;;;;;;;9.30;6.03;;;;;;;;;;5011286;28;20456;-46
2023/05/23 02:02:54;;;;;;;8.50;7.50;;;;;;;;;;5011550;28;20406;-46
2023/05/23 02:05:20;;;;;;;8.07;7.30;;;;;;;;;;5011727;28;20391;-46
2023/05/23 02:07:46;;;;;;;9.17;6.83;;;;;;;;;;5011527;28;20442;-46
2023/05/23 02:10:12;;;;;;;10.50;7.33;;;;;;;;;;5013757;28;20395;-46
2023/05/23 02:12:38;;;;;;;9.53;6.93;;;;;;;;;;5015662;28;20405;-45
2023/05/23 02:15:04;;;;;;;9.10;7.20;;;;;;;;;;5015765;28;20429;-45
2023/05/23 02:17:30;;;;;;;9.03;7.80;;;;;;;;;;5015045;28;20392;-46
2023/05/23 02:19:56;;;;;;;12.70;8.57;;;;;;;;;;5015669;28;20407;-47
2023/05/23 02:22:25;;;;;;;9.70;8.70;;;;;;;;;;5015483;28;20431;-47
2023/05/23 02:24:51;;;;;;;14.80;8.43;;;;;;;;;;5014936;28;20402;-45
2023/05/23 02:27:17;;;;;;;9.67;8.67;;;;;;;;;;5018023;28;20546;-45
2023/05/23 02:29:43;;;;;;;11.77;8.60;;;;;;;;;;5013816;28;20405;-46
2023/05/23 02:32:09;;;;;;;11.30;9.23;;;;;;;;;;5014813;28;20913;-45
2023/05/23 02:34:37;;;;;;;10.17;8.47;;;;;;;;;;5009178;28;20931;-45
2023/05/23 02:37:03;;;;;;;9.60;8.60;;;;;;;;;;5019713;28;20375;-46
2023/05/23 02:39:29;;;;;;;9.43;8.53;;;;;;;;;;5014825;28;20383;-46
2023/05/23 02:41:55;;;;;;;13.27;9.07;;;;;;;;;;5019697;28;20905;-46
2023/05/23 02:44:21;;;;;;;10.60;8.97;;;;;;;;;;5013907;28;20426;-47
2023/05/23 02:46:47;;;;;;;12.50;9.53;;;;;;;;;;5013990;28;20390;-45
2023/05/23 02:49:13;;;;;;;13.47;9.90;;;;;;;;;;5014479;28;20834;-46
2023/05/23 02:51:39;;;;;;;10.10;9.07;;;;;;;;;;5014295;28;20385;-46
2023/05/23 02:54:05;;;;;;;13.30;9.83;;;;;;;;;;5017876;28;20458;-46
2023/05/23 02:56:31;;;;;;;12.80;10.60;;;;;;;;;;5013748;28;20397;-45
2023/05/23 02:58:57;;;;;;;12.20;10.90;;;;;;;;;;5013155;28;20918;-45
2023/05/23 03:01:22;;;;;;;13.23;10.70;;;;;;;;;;5013351;28;20885;-44
2023/05/23 03:03:48;;;;;;;15.63;11.83;;;;;;;;;;5013871;28;20920;-45
2023/05/23 03:06:15;;;;;;;12.27;11.00;;;;;;;;;;5013755;28;20416;-44
2023/05/23 03:08:41;;;;;;;12.40;10.60;;;;;;;;;;5013694;28;20442;-45
2023/05/23 03:11:07;;;;;;;14.27;12.10;;;;;;;;;;5013978;28;20891;-46
2023/05/23 03:13:34;;;;;;;13.90;11.10;;;;;;;;;;5013475;28;20455;-45
2023/05/23 03:16:00;;;;;;;15.00;11.20;;;;;;;;;;5013747;28;20416;-45
2023/05/23 03:18:26;;;;;;;18.00;12.40;;;;;;;;;;5013756;28;20810;-45
2023/05/23 03:20:52;;;;;;;13.07;11.77;;;;;;;;;;5013294;28;20393;-45
2023/05/23 03:23:18;;;;;;;16.67;11.83;;;;;;;;;;5013963;28;20420;-45
2023/05/23 03:25:44;;;;;;;18.17;12.00;;;;;;;;;;5015061;28;20431;-45
2023/05/23 03:28:11;;;;;;;16.90;11.30;;;;;;;;;;5012990;28;20998;-45
2023/05/23 03:30:37;;;;;;;16.97;12.10;;;;;;;;;;5013915;28;20389;-47
2023/05/23 03:33:03;;;;;;;13.03;11.57;;;;;;;;;;5013664;28;20919;-44
2023/05/23 03:35:29;;;;;;;15.63;10.93;;;;;;;;;;5014102;28;20410;-45
2023/05/23 03:37:55;;;;;;;16.40;12.60;;;;;;;;;;5013947;28;20420;-45
2023/05/23 03:40:21;;;;;;;22.47;11.67;;;;;;;;;;5014422;28;20386;-45
2023/05/23 03:42:51;;;;;;;16.40;12.20;;;;;;;;;;5013533;28;20798;-45
2023/05/23 03:45:17;;;;;;;11.53;10.23;;;;;;;;;;5014075;28;20461;-45
2023/05/23 03:47:43;;;;;;;18.47;11.90;;;;;;;;;;5013673;28;20469;-45
2023/05/23 03:50:09;;;;;;;16.37;9.77;;;;;;;;;;5014354;28;20410;-45
2023/05/23 03:52:35;;;;;;;10.90;8.90;;;;;;;;;;5013905;28;20398;-45
2023/05/23 03:55:02;;;;;;;16.87;7.90;;;;;;;;;;5013197;28;21034;-44
2023/05/23 03:57:28;;;;;;;12.00;8.03;;;;;;;;;;5013311;28;20441;-45
2023/05/23 03:59:54;;;;;;;13.60;8.27;;;;;;;;;;5014214;28;20472;-45
2023/05/23 04:02:20;;;;;;;18.00;7.67;;;;;;;;;;5012697;28;20409;-45
2023/05/23 04:04:46;;;;;;;10.43;8.40;;;;;;;;;;5013763;28;21033;-45
2023/05/23 04:07:14;;;;;;;13.30;8.27;;;;;;;;;;5012808;28;20466;-44
2023/05/23 04:09:40;;;;;;;9.57;8.00;;;;;;;;;;5014081;28;20407;-45
2023/05/23 04:12:08;;;;;;;13.13;7.90;;;;;;;;;;5013788;28;20442;-45
2023/05/23 04:14:34;;;;;;;15.90;7.53;;;;;;;;;;5011130;28;20423;-45
2023/05/23 04:17:01;;;;;;;10.67;7.33;;;;;;;;;;5013184;28;20412;-46
2023/05/23 04:19:27;;;;;;;19.13;9.00;;;;;;;;;;5014235;28;20378;-46
2023/05/23 04:21:53;;;;;;;17.83;8.70;;;;;;;;;;5013501;28;20377;-44
2023/05/23 04:24:19;;;;;;;14.47;8.23;;;;;;;;;;5013222;28;20411;-45
2023/05/23 04:26:45;;;;;;;12.83;8.27;;;;;;;;;;5014150;28;20901;-45
2023/05/23 04:29:11;;;;;;;12.93;8.47;;;;;;;;;;5013226;28;20463;-45
2023/05/23 04:31:37;;;;;;;12.33;8.10;;;;;;;;;;5012870;28;20393;-45
2023/05/23 04:34:03;;;;;;;12.10;7.83;;;;;;;;;;5013530;28;20946;-46
2023/05/23 04:36:29;;;;;;;11.60;7.70;;;;;;;;;;5012896;28;20415;-45
2023/05/23 04:38:55;;;;;;;11.63;8.10;;;;;;;;;;5013118;28;20418;-45
2023/05/23 04:41:22;;;;;;;10.03;7.73;;;;;;;;;;5013455;28;20421;-45
2023/05/23 04:43:52;;;;;;;11.17;7.47;;;;;;;;;;5012868;28;20927;-44
2023/05/23 04:46:21;;;;;;;11.20;7.87;;;;;;;;;;5013071;28;20468;-45
2023/05/23 04:48:47;;;;;;;11.77;8.07;;;;;;;;;;5013526;28;20486;-45
2023/05/23 04:51:13;;;;;;;15.33;7.90;;;;;;;;;;5012504;28;20497;-45
2023/05/23 04:53:39;;;;;;;19.13;9.40;;;;;;;;;;5012223;28;20423;-45
2023/05/23 04:56:07;;;;;;;18.23;9.50;;;;;;;;;;5011831;28;20595;-45
2023/05/23 04:58:33;;;;;;;15.63;10.90;;;;;;;;;;5012034;28;20411;-45
2023/05/23 05:00:59;;;;;;;15.27;10.53;;;;;;;;;;5010615;28;20476;-46
2023/05/23 05:03:25;;;;;;;17.40;9.60;;;;;;;;;;5011977;28;20427;-45
2023/05/23 05:05:52;;;;;;;15.73;10.20;;;;;;;;;;5011938;28;20411;-45
2023/05/23 05:08:21;;;;;;;16.33;9.83;;;;;;;;;;5012022;28;20453;-46
2023/05/23 05:10:47;;;;;;;13.73;9.67;;;;;;;;;;5019479;28;20419;-45
2023/05/23 05:13:13;;;;;;;18.93;10.10;;;;;;;;;;5012816;28;20416;-46
2023/05/23 05:15:39;;;;;;;17.97;10.33;;;;;;;;;;5011832;28;20469;-45
2023/05/23 05:18:05;;;;;;;19.07;9.97;;;;;;;;;;5011812;28;20895;-45
2023/05/23 05:20:31;;;;;;;19.70;12.80;;;;;;;;;;5011832;28;20668;-46
2023/05/23 05:22:57;;;;;;;14.43;10.37;;;;;;;;;;5011903;28;20433;-45
2023/05/23 05:25:23;;;;;;;22.77;12.90;;;;;;;;;;5012433;28;20458;-46
2023/05/23 05:27:49;;;;;;;22.07;12.60;;;;;;;;;;5011748;28;20466;-45
2023/05/23 05:30:15;;;;;;;12.07;10.73;;;;;;;;;;5011796;28;20403;-46
2023/05/23 05:32:44;;;;;;;16.93;12.13;;;;;;;;;;5011580;28;20470;-46
2023/05/23 05:35:12;;;;;;;19.53;11.97;;;;;;;;;;5011741;28;20484;-45
2023/05/23 05:37:38;;;;;;;19.80;11.83;;;;;;;;;;5011818;28;21102;-45
2023/05/23 05:40:07;;;;;;;23.33;10.67;;;;;;;;;;5011554;28;20792;-45
2023/05/23 05:42:33;;;;;;;20.90;12.40;;;;;;;;;;5011265;28;20833;-46
2023/05/23 05:44:59;;;;;;;18.23;11.23;;;;;;;;;;5016843;28;20460;-46
2023/05/23 05:47:25;;;;;;;13.60;11.20;;;;;;;;;;5017955;28;20825;-47
2023/05/23 05:49:50;;;;;;;17.57;12.67;;;;;;;;;;5018262;28;20525;-45
2023/05/23 05:52:16;;;;;;;22.07;12.53;;;;;;;;;;5016826;28;20425;-45
2023/05/23 05:54:42;;;;;;;22.10;13.20;;;;;;;;;;5017905;28;20412;-45
2023/05/23 05:57:08;;;;;;;19.27;11.30;;;;;;;;;;5017701;28;20418;-45
2023/05/23 05:59:34;;;;;;;14.37;10.07;;;;;;;;;;5017503;28;20517;-45
2023/05/23 06:02:00;;;;;;;15.97;9.80;;;;;;;;;;5017917;28;20403;-45
2023/05/23 06:04:26;;;;;;;14.37;10.47;;;;;;;;;;5017919;28;20398;-45
2023/05/23 06:06:52;;;;;;;15.97;10.77;;;;;;;;;;5017816;28;20411;-45
2023/05/23 06:09:18;;;;;;;16.43;10.97;;;;;;;;;;5018251;28;20973;-45
2023/05/23 06:11:44;;;;;;;12.93;10.40;;;;;;;;;;5017953;28;20417;-45
2023/05/23 06:14:10;;;;;;;15.00;10.40;;;;;;;;;;5018090;28;20492;-45
2023/05/23 06:16:36;;;;;;;16.43;10.40;;;;;;;;;;5017752;28;20396;-45
2023/05/23 06:19:02;;;;;;;15.20;10.10;;;;;;;;;;5017886;28;20441;-45
2023/05/23 06:21:28;;;;;;;18.00;10.60;;;;;;;;;;5017714;28;20378;-46
2023/05/23 06:23:55;;;;;;;17.43;9.73;;;;;;;;;;5017751;28;20542;-45
2023/05/23 06:26:21;;;;;;;15.93;9.27;;;;;;;;;;5015773;28;20495;-45
2023/05/23 06:28:47;;;;;;;14.90;10.87;;;;;;;;;;5021174;28;20523;-45
2023/05/23 06:31:13;;;;;;;14.63;10.40;;;;;;;;;;5017454;28;20415;-45
2023/05/23 06:33:39;;;;;;;13.23;9.57;;;;;;;;;;5017333;28;20426;-45
2023/05/23 06:36:05;;;;;;;13.40;10.33;;;;;;;;;;5015929;28;20382;-45
2023/05/23 06:38:32;;;;;;;17.20;10.93;;;;;;;;;;5014344;28;20421;-45
2023/05/23 06:40:59;;;;;;;13.60;10.07;;;;;;;;;;5017867;28;20412;-46
2023/05/23 06:43:25;;;;;;;14.43;10.10;;;;;;;;;;5017786;28;20450;-45
2023/05/23 06:45:51;;;;;;;13.90;10.20;;;;;;;;;;5029854;28;20951;-45
2023/05/23 06:48:17;;;;;;;14.63;10.07;;;;;;;;;;5017656;28;20505;-45
2023/05/23 06:50:43;;;;;;;16.53;10.90;;;;;;;;;;5017864;28;20414;-46
2023/05/23 06:53:09;;;;;;;17.20;12.10;;;;;;;;;;5017843;28;20419;-45
2023/05/23 06:55:35;;;;;;;15.43;10.63;;;;;;;;;;5014478;28;20498;-45
2023/05/23 06:58:05;;;;;;;19.80;9.97;;;;;;;;;;5014601;28;20941;-46
2023/05/23 07:00:31;;;;;;;12.23;9.80;;;;;;;;;;5014706;28;20403;-45
2023/05/23 07:03:02;;;;;;;12.63;9.47;;;;;;;;;;5014625;28;20754;-45
2023/05/23 07:05:28;;;;;;;15.90;10.30;;;;;;;;;;5014661;28;20945;-46
2023/05/23 07:07:54;;;;;;;15.40;10.83;;;;;;;;;;5014053;28;20532;-45
2023/05/23 07:10:20;;;;;;;21.93;12.10;;;;;;;;;;5014483;28;20402;-47
2023/05/23 07:12:46;;;;;;;18.23;12.73;;;;;;;;;;5014461;28;20422;-45
2023/05/23 07:15:13;;;;;;;13.80;10.07;;;;;;;;;;5014375;28;20406;-45
2023/05/23 07:17:39;;;;;;;15.03;11.37;;;;;;;;;;5014488;28;20383;-45
2023/05/23 07:20:06;;;;;;;14.80;9.93;;;;;;;;;;5014237;28;20425;-45
2023/05/23 07:22:31;;;;;;;14.57;9.60;;;;;;;;;;5014108;28;20429;-45
2023/05/23 07:24:57;;;;;;;12.13;9.70;;;;;;;;;;5013557;28;20407;-45
2023/05/23 07:27:23;;;;;;;10.67;8.30;;;;;;;;;;5013311;28;20504;-45
2023/05/23 07:29:49;;;;;;;13.57;10.20;;;;;;;;;;5014006;28;20513;-46
2023/05/23 07:32:15;;;;;;;15.20;12.30;;;;;;;;;;5014046;28;20410;-46
2023/05/23 07:34:41;;;;;;;12.13;10.50;;;;;;;;;;5013933;28;20408;-45
2023/05/23 07:37:07;;;;;;;15.50;10.17;;;;;;;;;;5013844;28;20474;-46
2023/05/23 07:39:33;;;;;;;13.20;9.83;;;;;;;;;;5013926;28;20424;-47
2023/05/23 07:41:59;;;;;;;13.03;10.70;;;;;;;;;;5013766;28;20417;-46
2023/05/23 07:44:25;;;;;;;16.50;12.20;;;;;;;;;;5013821;28;20410;-46
2023/05/23 07:46:51;;;;;;;28.83;17.10;;;;;;;;;;5013666;28;20969;-45
2023/05/23 07:49:17;;;;;;;22.00;14.13;;;;;;;;;;5013564;28;20463;-46
2023/05/23 07:51:43;;;;;;;22.80;12.00;;;;;;;;;;5013735;28;20492;-47
2023/05/23 07:54:09;;;;;;;16.87;10.83;;;;;;;;;;5013945;28;20433;-45
2023/05/23 07:56:37;;;;;;;27.13;10.40;;;;;;;;;;5013494;28;20909;-45
2023/05/23 07:59:03;;;;;;;17.43;10.17;;;;;;;;;;5012649;28;20404;-46
2023/05/23 08:01:29;;;;;;;14.03;9.33;;;;;;;;;;5013932;28;20465;-45
2023/05/23 08:03:55;;;;;;;21.53;9.67;;;;;;;;;;5013305;28;20405;-45
2023/05/23 08:06:21;;;;;;;20.13;12.13;;;;;;;;;;5012979;28;20395;-47
2023/05/23 08:08:47;;;;;;;20.93;14.67;;;;;;;;;;5013427;28;20495;-46
2023/05/23 08:11:13;;;;;;;27.77;17.27;;;;;;;;;;5013518;28;20443;-45
2023/05/23 08:13:39;;;;;;;23.03;17.80;;;;;;;;;;5012710;28;20446;-45
2023/05/23 08:16:05;;;;;;;20.03;14.70;;;;;;;;;;5012795;28;20403;-46
2023/05/23 08:18:31;;;;;;;19.10;13.70;;;;;;;;;;5013129;28;20498;-45
2023/05/23 08:20:57;;;;;;;20.10;11.63;;;;;;;;;;5013241;28;20411;-45
2023/05/23 08:23:23;;;;;;;16.27;12.30;;;;;;;;;;5010200;28;20442;-45
2023/05/23 08:25:50;;;;;;;16.40;12.10;;;;;;;;;;5013023;28;20843;-45
2023/05/23 08:28:16;;;;;;;16.73;9.70;;;;;;;;;;5013101;28;20441;-46
2023/05/23 08:30:42;;;;;;;14.73;9.10;;;;;;;;;;5013349;28;20943;-46
2023/05/23 08:33:08;;;;;;;18.50;9.60;;;;;;;;;;5012711;28;20407;-45
2023/05/23 08:35:35;;;;;;;12.10;7.63;;;;;;;;;;5003544;28;20400;-45
2023/05/23 08:38:02;;;;;;;13.33;7.60;;;;;;;;;;5012184;28;20431;-46
2023/05/23 08:40:30;;;;;;;16.17;8.23;;;;;;;;;;5012850;28;20426;-45
2023/05/23 08:42:56;;;;;;;10.50;7.60;;;;;;;;;;5018437;28;20455;-45
2023/05/23 08:45:22;;;;;;;15.73;8.40;;;;;;;;;;5012760;28;20478;-45
2023/05/23 08:47:51;;;;;;;14.17;8.23;;;;;;;;;;5012377;28;20920;-45
2023/05/23 08:50:17;;;;;;;13.00;8.17;;;;;;;;;;5012688;28;20457;-45
2023/05/23 08:52:47;;;;;;;16.20;8.90;;;;;;;;;;5010908;28;20427;-45
2023/05/23 08:55:14;;;;;;;14.33;8.00;;;;;;;;;;4996897;28;20415;-45
2023/05/23 08:57:44;;;;;;;17.50;9.03;;;;;;;;;;5012195;28;20760;-45
2023/05/23 09:00:13;;;;;;;15.97;7.80;;;;;;;;;;5015005;28;20419;-45
2023/05/23 09:02:40;;;;;;;12.90;8.37;;;;;;;;;;5012062;28;20450;-45
2023/05/23 09:05:08;;;;;;;11.03;7.60;;;;;;;;;;5012514;28;20490;-46
2023/05/23 09:07:34;;;;;;;15.10;7.70;;;;;;;;;;5012446;28;20524;-46
2023/05/23 09:10:00;;;;;;;16.40;8.00;;;;;;;;;;5012533;28;20446;-45
2023/05/23 09:12:26;;;;;;;12.77;7.53;;;;;;;;;;5024716;28;20550;-46
2023/05/23 09:14:52;;;;;;;9.43;7.70;;;;;;;;;;5031232;28;20436;-45
2023/05/23 09:17:18;;;;;;;11.40;8.20;;;;;;;;;;5012106;28;20386;-45
2023/05/23 09:19:46;;;;;;;12.63;8.03;;;;;;;;;;5011451;28;20430;-45
2023/05/23 09:22:12;;;;;;;13.10;8.23;;;;;;;;;;5012046;28;20411;-45
2023/05/23 09:24:38;;;;;;;18.53;10.03;;;;;;;;;;5012079;28;20400;-45
2023/05/23 09:27:07;;;;;;;18.60;8.97;;;;;;;;;;5011949;28;20406;-45
2023/05/23 09:29:40;;;;;;;11.10;8.40;;;;;;;;;;5012158;28;20433;-45
2023/05/23 09:32:12;;;;;;;13.90;8.03;;;;;;;;;;5011565;28;20424;-45
2023/05/23 09:34:42;;;;;;;13.07;7.83;;;;;;;;;;5011871;28;20549;-45
2023/05/23 09:37:08;;;;;;;10.93;7.40;;;;;;;;;;5012205;28;20406;-45
2023/05/23 09:39:37;;;;;;;13.50;8.20;;;;;;;;;;4994903;28;20776;-45
2023/05/23 09:42:04;;;;;;;10.00;8.00;;;;;;;;;;5012139;28;20409;-45
2023/05/23 09:44:29;;;;;;;15.03;7.70;;;;;;;;;;5010890;28;20493;-45
2023/05/23 09:46:56;;;;;;;18.83;9.07;;;;;;;;;;5011921;28;20929;-45
2023/05/23 09:49:22;;;;;;;16.57;8.70;;;;;;;;;;5011827;28;20553;-45
2023/05/23 09:51:57;;;;;;;18.20;9.50;;;;;;;;;;5011889;28;20779;-45
2023/05/23 09:54:23;;;;;;;17.43;8.13;;;;;;;;;;5011922;28;20418;-45
2023/05/23 09:56:51;;;;;;;14.30;8.70;;;;;;;;;;5011554;28;20403;-46
2023/05/23 09:59:19;;;;;;;13.83;8.47;;;;;;;;;;5011814;28;20865;-45
2023/05/23 10:01:46;;;;;;;18.90;8.67;;;;;;;;;;5011161;28;20479;-45
2023/05/23 10:04:14;;;;;;;14.63;9.37;;;;;;;;;;5010360;28;20455;-45
2023/05/23 10:06:46;;;;;;;19.07;12.87;;;;;;;;;;5011587;28;20385;-45
2023/05/23 10:09:14;;;;;;;20.70;13.93;;;;;;;;;;5011614;28;21020;-45
2023/05/23 10:12:01;;;;;;;21.00;12.13;;;;;;;;;;5011465;28;20421;-45
2023/05/23 10:14:28;;;;;;;21.43;13.47;;;;;;;;;;4974448;28;20400;-45
2023/05/23 10:16:58;;;;;;;19.33;12.93;;;;;;;;;;5011420;28;20473;-45
2023/05/23 10:19:26;;;;;;;24.63;15.30;;;;;;;;;;5011603;28;20399;-45
2023/05/23 10:21:58;;;;;;;21.63;14.50;;;;;;;;;;5010646;28;20431;-45
2023/05/23 10:24:25;;;;;;;22.33;16.40;;;;;;;;;;5011450;28;20469;-45
2023/05/23 10:26:51;;;;;;;25.23;14.93;;;;;;;;;;5011332;28;20389;-45
2023/05/23 10:29:17;;;;;;;22.87;12.80;;;;;;;;;;5011483;28;20459;-45
2023/05/23 10:31:43;;;;;;;16.53;12.13;;;;;;;;;;5015027;28;20415;-45
2023/05/23 10:34:21;;;;;;;16.33;12.33;;;;;;;;;;5015075;28;20460;-45
2023/05/23 10:37:03;;;;;;;18.93;12.77;;;;;;;;;;5014808;28;20497;-45
2023/05/23 10:39:35;;;;;;;14.77;11.20;;;;;;;;;;5015445;28;20407;-45
2023/05/23 10:42:06;;;;;;;14.73;11.80;;;;;;;;;;5007447;28;20481;-45
2023/05/23 10:44:32;;;;;;;18.33;12.30;;;;;;;;;;5014931;28;20450;-45
2023/05/23 10:47:00;;;;;;;19.97;13.37;;;;;;;;;;5014801;28;20414;-46
2023/05/23 10:49:38;;;;;;;17.90;13.40;;;;;;;;;;5014823;28;20519;-45
2023/05/23 10:52:08;;;;;;;16.17;10.90;;;;;;;;;;5010335;28;20426;-44
2023/05/23 10:54:47;;;;;;;19.33;12.13;;;;;;;;;;5014395;28;20925;-46
2023/05/23 10:57:16;;;;;;;16.10;11.00;;;;;;;;;;5014573;28;20809;-45
2023/05/23 10:59:42;;;;;;;22.97;11.50;;;;;;;;;;5014698;28;20419;-46
2023/05/23 11:02:15;;;;;;;17.00;11.30;;;;;;;;;;5014631;28;20418;-45
2023/05/23 11:04:41;;;;;;;15.80;10.50;;;;;;;;;;5014729;28;20392;-45
2023/05/23 11:07:27;;;;;;;24.93;10.80;;;;;;;;;;5014522;28;20402;-45
2023/05/23 11:10:15;;;;;;;15.70;9.93;;;;;;;;;;5014681;28;20403;-45
2023/05/23 11:12:42;;;;;;;16.23;8.37;;;;;;;;;;5012399;28;20418;-46
2023/05/23 11:15:17;;;;;;;12.87;6.63;;;;;;;;;;4994982;28;20400;-45
2023/05/23 11:17:53;;;;;;;11.23;7.20;;;;;;;;;;4995585;28;20417;-45
2023/05/23 11:20:25;;;;;;;11.53;6.20;;;;;;;;;;5013128;28;20392;-45
2023/05/23 11:22:54;;;;;;;12.67;6.20;;;;;;;;;;5012347;28;20959;-45
2023/05/23 11:25:21;;;;;;;15.40;7.00;;;;;;;;;;5013826;28;20431;-45
2023/05/23 11:27:49;;;;;;;12.17;7.97;;;;;;;;;;5013971;28;20524;-45
2023/05/23 11:30:16;;;;;;;14.47;7.63;;;;;;;;;;5014661;28;20439;-45
2023/05/23 11:32:52;;;;;;;11.83;7.50;;;;;;;;;;5013961;28;20431;-45
2023/05/23 11:35:18;;;;;;;15.93;7.13;;;;;;;;;;5014195;28;20415;-45
2023/05/23 11:37:44;;;;;;;10.30;6.23;;;;;;;;;;5013947;28;20466;-45
2023/05/23 11:40:28;;;;;;;7.20;5.60;;;;;;;;;;5012912;28;20401;-45
2023/05/23 11:42:55;;;;;;;8.47;5.73;;;;;;;;;;5013548;28;20417;-45
2023/05/23 11:45:25;;;;;;;8.80;5.40;;;;;;;;;;5013983;28;20387;-45
2023/05/23 11:47:51;;;;;;;8.13;7.33;;;;;;;;;;5017297;28;20480;-45
2023/05/23 11:50:17;;;;;;;13.90;7.57;;;;;;;;;;5022268;28;20870;-45
2023/05/23 11:52:44;;;;;;;18.23;9.53;;;;;;;;;;5012761;28;20466;-45
2023/05/23 11:55:10;;;;;;;14.07;9.83;;;;;;;;;;5012005;28;20398;-45
2023/05/23 11:57:39;;;;;;;11.80;9.27;;;;;;;;;;5012432;28;20808;-45
2023/05/23 12:00:07;;;;;;;10.53;7.00;;;;;;;;;;5014186;28;20378;-46
2023/05/23 12:02:38;;;;;;;16.17;6.30;;;;;;;;;;5013918;28;20510;-45
2023/05/23 12:05:08;;;;;;;7.90;5.57;;;;;;;;;;5014687;28;20421;-45
2023/05/23 12:07:35;;;;;;;9.97;7.30;;;;;;;;;;5013417;28;20549;-46
2023/05/23 12:10:01;;;;;;;7.13;5.37;;;;;;;;;;5013436;28;20406;-45
2023/05/23 12:12:27;;;;;;;6.13;3.83;;;;;;;;;;5012366;28;20426;-45
2023/05/23 12:14:55;;;;;;;6.70;4.00;;;;;;;;;;5013183;28;20897;-45
2023/05/23 12:17:21;;;;;;;10.33;4.33;;;;;;;;;;5012828;28;20444;-45
2023/05/23 12:19:47;;;;;;;9.47;5.00;;;;;;;;;;5012662;28;20382;-45
2023/05/23 12:22:13;;;;;;;11.57;4.50;;;;;;;;;;5013706;28;20413;-45
2023/05/23 12:24:45;;;;;;;9.27;5.30;;;;;;;;;;5012614;28;20456;-45
2023/05/23 12:27:12;;;;;;;8.23;5.80;;;;;;;;;;5012318;28;20481;-45
2023/05/23 12:29:38;;;;;;;8.50;5.87;;;;;;;;;;5010717;28;20495;-44
2023/05/23 12:32:05;;;;;;;10.37;5.10;;;;;;;;;;5012343;28;20970;-45
2023/05/23 12:34:31;;;;;;;8.63;4.80;;;;;;;;;;5011206;28;20514;-46
2023/05/23 12:36:57;;;;;;;8.97;5.60;;;;;;;;;;5011521;28;20477;-46
2023/05/23 12:39:32;;;;;;;10.20;5.80;;;;;;;;;;5012546;28;20768;-46
2023/05/23 12:42:08;;;;;;;7.50;4.90;;;;;;;;;;5003842;28;20414;-46
2023/05/23 12:44:34;;;;;;;11.80;5.90;;;;;;;;;;5010750;28;21026;-44
2023/05/23 12:47:00;;;;;;;8.63;4.87;;;;;;;;;;5012682;28;20496;-45
2023/05/23 12:49:27;;;;;;;13.20;3.50;;;;;;;;;;5013783;28;20712;-45
2023/05/23 12:51:53;;;;;;;8.90;3.77;;;;;;;;;;5012793;28;20404;-45
2023/05/23 12:54:18;;;;;;;5.40;3.60;;;;;;;;;;5010107;28;20438;-46
2023/05/23 12:56:45;;;;;;;11.90;4.17;;;;;;;;;;5012396;28;20772;-45
2023/05/23 12:59:10;;;;;;;11.30;3.80;;;;;;;;;;5012842;28;20399;-45
2023/05/23 13:01:36;;;;;;;7.53;3.93;;;;;;;;;;5011698;28;20414;-46
2023/05/23 13:04:02;;;;;;;7.23;3.57;;;;;;;;;;5012667;28;20429;-45
2023/05/23 13:06:28;;;;;;;6.23;3.53;;;;;;;;;;5012269;28;20414;-45
2023/05/23 13:08:55;;;;;;;5.73;3.63;;;;;;;;;;5012504;28;20463;-46
2023/05/23 13:11:21;;;;;;;6.83;3.57;;;;;;;;;;5012407;28;20412;-46
2023/05/23 13:13:47;;;;;;;17.90;4.67;;;;;;;;;;5012319;28;20441;-45
2023/05/23 13:16:13;;;;;;;7.57;3.60;;;;;;;;;;5011961;28;20441;-45
2023/05/23 13:18:39;;;;;;;9.20;3.60;;;;;;;;;;5012480;28;20445;-45
2023/05/23 13:21:05;;;;;;;13.07;4.57;;;;;;;;;;5012372;28;20411;-45
2023/05/23 13:23:31;;;;;;;8.70;3.10;;;;;;;;;;5011133;28;20457;-45
2023/05/23 13:25:57;;;;;;;5.33;3.10;;;;;;;;;;5012148;28;20417;-45
2023/05/23 13:28:23;;;;;;;6.30;3.57;;;;;;;;;;4999982;28;20623;-45
2023/05/23 13:30:50;;;;;;;6.93;3.50;;;;;;;;;;5001795;28;20413;-46
2023/05/23 13:33:16;;;;;;;6.00;3.50;;;;;;;;;;5012131;28;20453;-45
2023/05/23 13:35:42;;;;;;;14.40;4.30;;;;;;;;;;5012012;28;20422;-45
2023/05/23 13:38:08;;;;;;;10.30;3.20;;;;;;;;;;5012013;28;20729;-45
2023/05/23 13:40:34;;;;;;;8.17;3.10;;;;;;;;;;5012482;28;20411;-45
2023/05/23 13:43:00;;;;;;;18.57;4.17;;;;;;;;;;5012400;28;20821;-45
2023/05/23 13:45:26;;;;;;;9.50;3.03;;;;;;;;;;5012776;28;20420;-45
2023/05/23 13:47:52;;;;;;;9.10;3.87;;;;;;;;;;5015807;28;20454;-46
2023/05/23 13:50:18;;;;;;;5.03;3.73;;;;;;;;;;5024160;28;20759;-46
2023/05/23 13:52:44;;;;;;;9.20;3.00;;;;;;;;;;5012052;28;20445;-45
2023/05/23 13:55:11;;;;;;;8.07;3.27;;;;;;;;;;5012794;28;20451;-46
2023/05/23 13:57:36;;;;;;;13.80;4.37;;;;;;;;;;5012372;28;20409;-45
2023/05/23 14:00:03;;;;;;;9.60;3.80;;;;;;;;;;5013069;28;20452;-46
2023/05/23 14:02:30;;;;;;;8.93;3.47;;;;;;;;;;5012860;28;20778;-45
2023/05/23 14:04:57;;;;;;;4.30;3.53;;;;;;;;;;5013703;28;20492;-45
2023/05/23 14:07:23;;;;;;;8.33;3.40;;;;;;;;;;5016198;28;20417;-45
2023/05/23 14:09:49;;;;;;;10.90;3.80;;;;;;;;;;5016485;28;20426;-46
2023/05/23 14:12:15;;;;;;;7.73;3.50;;;;;;;;;;5016062;28;20411;-45
2023/05/23 14:14:41;;;;;;;5.27;3.63;;;;;;;;;;5016127;28;20777;-46
2023/05/23 14:17:07;;;;;;;9.80;3.67;;;;;;;;;;5015927;28;20408;-45
2023/05/23 14:19:33;;;;;;;7.73;3.27;;;;;;;;;;5016357;28;20418;-46
2023/05/23 14:21:59;;;;;;;6.83;3.77;;;;;;;;;;5016683;28;20422;-46
2023/05/23 14:24:25;;;;;;;7.63;3.37;;;;;;;;;;5014672;28;20465;-46
2023/05/23 14:26:52;;;;;;;11.70;3.83;;;;;;;;;;5015886;28;20501;-45
2023/05/23 14:29:17;;;;;;;11.50;4.80;;;;;;;;;;5015813;28;20462;-46